Nucla, Colorado
Current Conditions -  °F | °C
As of 8:55 PM on Tuesday 21 Oct 2014 (Local Time) from KAIB Reporting Station
Clear Clear  
Wind Chill: 55°   Ceiling: Unl
Heat Index: 55°   Visibility: 10mi
Dew Point: 37°   Wind: 5mph
Humidity: 51%   Direction: 120°ESE
Pressure: 30.08"   Gusts: NA
Location:  38.27°N, 108.55°W
Report Text: KAIB 220255Z AUTO 12004KT 10SM CLR 13/03 A3008 RMK AO2 LTG DSNT NW
Loading
Personal Weather Stations






























Interactive Weather Map New forecast layout! Learn more

10-Day Weather Forecast

Advertisements
Track Severe Weather on mobile